sensor_id;sensor_type;location;lat;lon;timestamp;temperature;humidity
36458;DHT22;22480;50.546;12.292;2023-04-01T00:00:30;7.90;99.90
36458;DHT22;22480;50.546;12.292;2023-04-01T00:02:56;7.90;99.90
36458;DHT22;22480;50.546;12.292;2023-04-01T00:05:22;7.90;99.90
36458;DHT22;22480;50.546;12.292;2023-04-01T00:07:50;7.90;99.90
36458;DHT22;22480;50.546;12.292;2023-04-01T00:10:16;7.90;99.90
36458;DHT22;22480;50.546;12.292;2023-04-01T00:12:43;7.90;99.90
36458;DHT22;22480;50.546;12.292;2023-04-01T00:15:10;7.90;99.90
36458;DHT22;22480;50.546;12.292;2023-04-01T00:17:37;7.90;99.90
36458;DHT22;22480;50.546;12.292;2023-04-01T00:20:04;8.00;99.90
36458;DHT22;22480;50.546;12.292;2023-04-01T00:22:30;7.90;99.90
36458;DHT22;22480;50.546;12.292;2023-04-01T00:24:55;7.90;99.90
36458;DHT22;22480;50.546;12.292;2023-04-01T00:27:21;8.00;99.90
36458;DHT22;22480;50.546;12.292;2023-04-01T00:29:47;7.90;99.90
36458;DHT22;22480;50.546;12.292;2023-04-01T00:32:15;7.90;99.90
36458;DHT22;22480;50.546;12.292;2023-04-01T00:34:42;7.90;99.90
36458;DHT22;22480;50.546;12.292;2023-04-01T00:37:08;7.90;99.90
36458;DHT22;22480;50.546;12.292;2023-04-01T00:39:34;7.90;99.90
36458;DHT22;22480;50.546;12.292;2023-04-01T00:42:02;7.80;99.90
36458;DHT22;22480;50.546;12.292;2023-04-01T00:44:30;7.80;99.90
36458;DHT22;22480;50.546;12.292;2023-04-01T00:46:57;7.80;99.90
36458;DHT22;22480;50.546;12.292;2023-04-01T00:49:27;7.70;99.90
36458;DHT22;22480;50.546;12.292;2023-04-01T00:51:55;7.60;99.90
36458;DHT22;22480;50.546;12.292;2023-04-01T00:54:24;7.60;99.90
36458;DHT22;22480;50.546;12.292;2023-04-01T00:57:00;7.50;99.90
36458;DHT22;22480;50.546;12.292;2023-04-01T00:59:33;7.50;99.90
36458;DHT22;22480;50.546;12.292;2023-04-01T01:02:02;7.50;99.90
36458;DHT22;22480;50.546;12.292;2023-04-01T01:04:33;7.50;99.90
36458;DHT22;22480;50.546;12.292;2023-04-01T01:18:09;7.50;99.90
36458;DHT22;22480;50.546;12.292;2023-04-01T01:24:11;7.60;99.90
36458;DHT22;22480;50.546;12.292;2023-04-01T01:35:20;7.60;99.90
36458;DHT22;22480;50.546;12.292;2023-04-01T01:37:52;7.70;99.90
36458;DHT22;22480;50.546;12.292;2023-04-01T01:40:20;7.70;99.90
36458;DHT22;22480;50.546;12.292;2023-04-01T01:42:50;7.70;99.90
36458;DHT22;22480;50.546;12.292;2023-04-01T01:45:19;7.70;99.90
36458;DHT22;22480;50.546;12.292;2023-04-01T01:47:47;7.70;99.90
36458;DHT22;22480;50.546;12.292;2023-04-01T01:50:14;7.80;99.90
36458;DHT22;22480;50.546;12.292;2023-04-01T01:52:41;7.80;99.90
36458;DHT22;22480;50.546;12.292;2023-04-01T01:55:28;7.80;99.90
36458;DHT22;22480;50.546;12.292;2023-04-01T01:57:59;7.80;99.90
36458;DHT22;22480;50.546;12.292;2023-04-01T02:00:27;7.80;99.90
36458;DHT22;22480;50.546;12.292;2023-04-01T02:02:53;7.80;99.90
36458;DHT22;22480;50.546;12.292;2023-04-01T02:05:24;7.80;99.90
36458;DHT22;22480;50.546;12.292;2023-04-01T02:08:07;7.90;99.90
36458;DHT22;22480;50.546;12.292;2023-04-01T02:10:37;7.90;99.90
36458;DHT22;22480;50.546;12.292;2023-04-01T02:13:07;7.90;99.90
36458;DHT22;22480;50.546;12.292;2023-04-01T02:15:40;7.90;99.90
36458;DHT22;22480;50.546;12.292;2023-04-01T02:18:07;7.90;99.90
36458;DHT22;22480;50.546;12.292;2023-04-01T02:20:35;7.90;99.90
36458;DHT22;22480;50.546;12.292;2023-04-01T02:23:02;7.90;99.90
36458;DHT22;22480;50.546;12.292;2023-04-01T02:25:33;7.80;99.90
36458;DHT22;22480;50.546;12.292;2023-04-01T02:28:00;7.80;99.90
36458;DHT22;22480;50.546;12.292;2023-04-01T02:30:28;7.80;99.90
36458;DHT22;22480;50.546;12.292;2023-04-01T02:32:56;7.80;99.90
36458;DHT22;22480;50.546;12.292;2023-04-01T02:35:22;7.80;99.90
36458;DHT22;22480;50.546;12.292;2023-04-01T02:37:49;7.80;99.90
36458;DHT22;22480;50.546;12.292;2023-04-01T02:40:16;7.80;99.90
36458;DHT22;22480;50.546;12.292;2023-04-01T02:42:42;7.80;99.90
36458;DHT22;22480;50.546;12.292;2023-04-01T02:45:08;7.80;99.90
36458;DHT22;22480;50.546;12.292;2023-04-01T02:47:34;7.80;99.90
36458;DHT22;22480;50.546;12.292;2023-04-01T02:50:00;7.70;99.90
36458;DHT22;22480;50.546;12.292;2023-04-01T02:52:27;7.80;99.90
36458;DHT22;22480;50.546;12.292;2023-04-01T02:54:54;7.80;99.90
36458;DHT22;22480;50.546;12.292;2023-04-01T02:57:20;7.70;99.90
36458;DHT22;22480;50.546;12.292;2023-04-01T02:59:47;7.70;99.90
36458;DHT22;22480;50.546;12.292;2023-04-01T03:02:13;7.70;99.90
36458;DHT22;22480;50.546;12.292;2023-04-01T03:04:39;7.70;99.90
36458;DHT22;22480;50.546;12.292;2023-04-01T03:07:05;7.60;99.90
36458;DHT22;22480;50.546;12.292;2023-04-01T03:09:31;7.60;99.90
36458;DHT22;22480;50.546;12.292;2023-04-01T03:11:56;7.60;99.90
36458;DHT22;22480;50.546;12.292;2023-04-01T03:14:22;7.60;99.90
36458;DHT22;22480;50.546;12.292;2023-04-01T03:16:48;7.60;99.90
36458;DHT22;22480;50.546;12.292;2023-04-01T03:19:13;7.60;99.90
36458;DHT22;22480;50.546;12.292;2023-04-01T03:21:40;7.60;99.90
36458;DHT22;22480;50.546;12.292;2023-04-01T03:24:06;7.60;99.90
36458;DHT22;22480;50.546;12.292;2023-04-01T03:26:33;7.60;99.90
36458;DHT22;22480;50.546;12.292;2023-04-01T03:28:59;7.60;99.90
36458;DHT22;22480;50.546;12.292;2023-04-01T03:31:25;7.60;99.90
36458;DHT22;22480;50.546;12.292;2023-04-01T03:33:54;7.70;99.90
36458;DHT22;22480;50.546;12.292;2023-04-01T03:36:21;7.60;99.90
36458;DHT22;22480;50.546;12.292;2023-04-01T03:38:47;7.70;99.90
36458;DHT22;22480;50.546;12.292;2023-04-01T03:41:18;7.70;99.90
36458;DHT22;22480;50.546;12.292;2023-04-01T03:43:44;7.60;99.90
36458;DHT22;22480;50.546;12.292;2023-04-01T03:46:11;7.70;99.90
36458;DHT22;22480;50.546;12.292;2023-04-01T03:48:36;7.70;99.90
36458;DHT22;22480;50.546;12.292;2023-04-01T03:51:07;7.70;99.90
36458;DHT22;22480;50.546;12.292;2023-04-01T03:53:33;7.70;99.90
36458;DHT22;22480;50.546;12.292;2023-04-01T03:56:08;7.60;99.90
36458;DHT22;22480;50.546;12.292;2023-04-01T03:58:36;7.60;99.90
36458;DHT22;22480;50.546;12.292;2023-04-01T04:01:03;7.50;99.90
36458;DHT22;22480;50.546;12.292;2023-04-01T04:03:30;7.40;99.90
36458;DHT22;22480;50.546;12.292;2023-04-01T04:05:57;7.40;99.90
36458;DHT22;22480;50.546;12.292;2023-04-01T04:08:22;7.30;99.90
36458;DHT22;22480;50.546;12.292;2023-04-01T04:10:55;7.30;99.90
36458;DHT22;22480;50.546;12.292;2023-04-01T04:13:21;7.30;99.90
36458;DHT22;22480;50.546;12.292;2023-04-01T04:15:53;7.20;99.90
36458;DHT22;22480;50.546;12.292;2023-04-01T04:18:19;7.20;99.90
36458;DHT22;22480;50.546;12.292;2023-04-01T04:20:46;7.20;99.90
36458;DHT22;22480;50.546;12.292;2023-04-01T04:23:17;7.10;99.90
36458;DHT22;22480;50.546;12.292;2023-04-01T04:25:57;7.20;99.90
36458;DHT22;22480;50.546;12.292;2023-04-01T04:28:24;7.20;99.90
36458;DHT22;22480;50.546;12.292;2023-04-01T04:30:51;7.20;99.90
36458;DHT22;22480;50.546;12.292;2023-04-01T04:33:17;7.30;99.90
36458;DHT22;22480;50.546;12.292;2023-04-01T04:35:43;7.30;99.90
36458;DHT22;22480;50.546;12.292;2023-04-01T04:38:09;7.30;99.90
36458;DHT22;22480;50.546;12.292;2023-04-01T04:40:36;7.30;99.90
36458;DHT22;22480;50.546;12.292;2023-04-01T04:43:03;7.40;99.90
36458;DHT22;22480;50.546;12.292;2023-04-01T04:45:29;7.30;99.90
36458;DHT22;22480;50.546;12.292;2023-04-01T04:47:56;7.30;99.90
36458;DHT22;22480;50.546;12.292;2023-04-01T04:50:22;7.40;99.90
36458;DHT22;22480;50.546;12.292;2023-04-01T04:52:48;7.40;99.90
36458;DHT22;22480;50.546;12.292;2023-04-01T04:55:14;7.40;99.90
36458;DHT22;22480;50.546;12.292;2023-04-01T04:57:43;7.50;99.90
36458;DHT22;22480;50.546;12.292;2023-04-01T05:00:09;7.60;99.90
36458;DHT22;22480;50.546;12.292;2023-04-01T05:03:04;7.50;99.90
36458;DHT22;22480;50.546;12.292;2023-04-01T05:05:30;7.60;99.90
36458;DHT22;22480;50.546;12.292;2023-04-01T05:07:56;7.60;99.90
36458;DHT22;22480;50.546;12.292;2023-04-01T05:10:22;7.60;99.90
36458;DHT22;22480;50.546;12.292;2023-04-01T05:12:48;7.60;99.90
36458;DHT22;22480;50.546;12.292;2023-04-01T05:15:17;7.60;99.90
36458;DHT22;22480;50.546;12.292;2023-04-01T05:17:43;7.70;99.90
36458;DHT22;22480;50.546;12.292;2023-04-01T05:20:12;7.70;99.90
36458;DHT22;22480;50.546;12.292;2023-04-01T05:22:39;7.70;99.90
36458;DHT22;22480;50.546;12.292;2023-04-01T05:25:05;7.70;99.90
36458;DHT22;22480;50.546;12.292;2023-04-01T05:27:31;7.70;99.90
36458;DHT22;22480;50.546;12.292;2023-04-01T05:29:57;7.80;99.90
36458;DHT22;22480;50.546;12.292;2023-04-01T05:32:39;7.80;99.90
36458;DHT22;22480;50.546;12.292;2023-04-01T05:35:06;7.80;99.90
36458;DHT22;22480;50.546;12.292;2023-04-01T05:37:34;7.80;99.90
36458;DHT22;22480;50.546;12.292;2023-04-01T05:40:00;7.80;99.90
36458;DHT22;22480;50.546;12.292;2023-04-01T05:42:25;7.80;99.90
36458;DHT22;22480;50.546;12.292;2023-04-01T05:44:51;7.70;99.90
36458;DHT22;22480;50.546;12.292;2023-04-01T05:47:37;7.80;99.90
36458;DHT22;22480;50.546;12.292;2023-04-01T05:50:03;7.70;99.90
36458;DHT22;22480;50.546;12.292;2023-04-01T05:52:29;7.80;99.90
36458;DHT22;22480;50.546;12.292;2023-04-01T05:54:54;7.80;99.90
36458;DHT22;22480;50.546;12.292;2023-04-01T05:57:20;7.80;99.90
36458;DHT22;22480;50.546;12.292;2023-04-01T05:59:46;7.80;99.90
36458;DHT22;22480;50.546;12.292;2023-04-01T06:02:12;7.90;99.90
36458;DHT22;22480;50.546;12.292;2023-04-01T06:04:39;7.80;99.90
36458;DHT22;22480;50.546;12.292;2023-04-01T06:07:14;7.80;99.90
36458;DHT22;22480;50.546;12.292;2023-04-01T06:09:40;7.80;99.90
36458;DHT22;22480;50.546;12.292;2023-04-01T06:17:52;7.90;99.90
36458;DHT22;22480;50.546;12.292;2023-04-01T06:25:47;8.00;99.90
36458;DHT22;22480;50.546;12.292;2023-04-01T06:39:42;8.30;99.90
36458;DHT22;22480;50.546;12.292;2023-04-01T06:45:13;8.50;99.90
36458;DHT22;22480;50.546;12.292;2023-04-01T06:48:13;8.40;99.90
36458;DHT22;22480;50.546;12.292;2023-04-01T06:51:39;8.50;99.90
36458;DHT22;22480;50.546;12.292;2023-04-01T06:54:35;8.50;99.90
36458;DHT22;22480;50.546;12.292;2023-04-01T07:02:52;8.70;99.90
36458;DHT22;22480;50.546;12.292;2023-04-01T07:05:23;8.70;99.90
36458;DHT22;22480;50.546;12.292;2023-04-01T07:07:52;8.80;99.90
36458;DHT22;22480;50.546;12.292;2023-04-01T07:10:37;8.70;99.90
36458;DHT22;22480;50.546;12.292;2023-04-01T07:16:21;8.90;99.90
36458;DHT22;22480;50.546;12.292;2023-04-01T07:18:54;9.00;99.90
36458;DHT22;22480;50.546;12.292;2023-04-01T07:22:12;9.10;99.90
36458;DHT22;22480;50.546;12.292;2023-04-01T07:24:33;9.20;99.90
36458;DHT22;22480;50.546;12.292;2023-04-01T07:27:08;9.30;99.90
36458;DHT22;22480;50.546;12.292;2023-04-01T07:29:38;9.30;99.90
36458;DHT22;22480;50.546;12.292;2023-04-01T07:32:22;9.20;99.90
36458;DHT22;22480;50.546;12.292;2023-04-01T07:37:57;9.40;99.90
36458;DHT22;22480;50.546;12.292;2023-04-01T07:40:26;9.30;99.90
36458;DHT22;22480;50.546;12.292;2023-04-01T07:46:33;9.40;99.90
36458;DHT22;22480;50.546;12.292;2023-04-01T07:49:11;9.50;99.90
36458;DHT22;22480;50.546;12.292;2023-04-01T07:51:50;9.60;99.90
36458;DHT22;22480;50.546;12.292;2023-04-01T07:54:38;9.70;99.90
36458;DHT22;22480;50.546;12.292;2023-04-01T07:57:16;9.70;99.90
36458;DHT22;22480;50.546;12.292;2023-04-01T08:00:08;9.70;99.90
36458;DHT22;22480;50.546;12.292;2023-04-01T08:05:28;9.90;99.90
36458;DHT22;22480;50.546;12.292;2023-04-01T08:08:19;9.90;99.90
36458;DHT22;22480;50.546;12.292;2023-04-01T08:11:51;9.80;99.90
36458;DHT22;22480;50.546;12.292;2023-04-01T08:22:40;10.10;99.90
36458;DHT22;22480;50.546;12.292;2023-04-01T08:25:22;10.30;99.90
36458;DHT22;22480;50.546;12.292;2023-04-01T08:28:09;10.30;99.90
36458;DHT22;22480;50.546;12.292;2023-04-01T08:30:49;10.10;99.90
36458;DHT22;22480;50.546;12.292;2023-04-01T08:36:08;9.70;99.90
36458;DHT22;22480;50.546;12.292;2023-04-01T08:38:46;9.80;99.90
36458;DHT22;22480;50.546;12.292;2023-04-01T08:41:41;9.80;99.90
36458;DHT22;22480;50.546;12.292;2023-04-01T08:44:44;9.70;99.90
36458;DHT22;22480;50.546;12.292;2023-04-01T09:01:58;9.90;99.90
36458;DHT22;22480;50.546;12.292;2023-04-01T09:16:20;9.90;99.90
36458;DHT22;22480;50.546;12.292;2023-04-01T09:38:38;9.90;99.90
36458;DHT22;22480;50.546;12.292;2023-04-01T09:41:32;9.90;99.90
36458;DHT22;22480;50.546;12.292;2023-04-01T09:44:19;9.90;99.90
36458;DHT22;22480;50.546;12.292;2023-04-01T09:47:31;9.90;99.90
36458;DHT22;22480;50.546;12.292;2023-04-01T09:50:17;10.20;99.90
36458;DHT22;22480;50.546;12.292;2023-04-01T09:55:55;10.20;99.90
36458;DHT22;22480;50.546;12.292;2023-04-01T09:58:29;10.40;99.90
36458;DHT22;22480;50.546;12.292;2023-04-01T10:04:17;10.60;99.90
36458;DHT22;22480;50.546;12.292;2023-04-01T10:21:57;11.00;99.90
36458;DHT22;22480;50.546;12.292;2023-04-01T10:33:10;11.10;99.90
36458;DHT22;22480;50.546;12.292;2023-04-01T10:36:07;11.00;99.90
36458;DHT22;22480;50.546;12.292;2023-04-01T10:51:01;10.60;99.90
36458;DHT22;22480;50.546;12.292;2023-04-01T10:57:24;10.80;99.90
36458;DHT22;22480;50.546;12.292;2023-04-01T11:07:39;10.70;99.90
36458;DHT22;22480;50.546;12.292;2023-04-01T11:36:15;10.60;99.90
36458;DHT22;22480;50.546;12.292;2023-04-01T11:39:00;10.70;99.90
36458;DHT22;22480;50.546;12.292;2023-04-01T11:42:03;11.10;99.90
36458;DHT22;22480;50.546;12.292;2023-04-01T12:11:09;10.20;99.90
36458;DHT22;22480;50.546;12.292;2023-04-01T12:16:24;10.00;99.90
36458;DHT22;22480;50.546;12.292;2023-04-01T12:18:59;10.00;99.90
36458;DHT22;22480;50.546;12.292;2023-04-01T12:22:12;9.90;99.90
36458;DHT22;22480;50.546;12.292;2023-04-01T12:24:54;9.90;99.90
36458;DHT22;22480;50.546;12.292;2023-04-01T12:27:32;9.90;99.90
36458;DHT22;22480;50.546;12.292;2023-04-01T12:41:29;9.60;99.90
36458;DHT22;22480;50.546;12.292;2023-04-01T12:46:44;9.40;99.90
36458;DHT22;22480;50.546;12.292;2023-04-01T12:52:11;9.50;99.90
36458;DHT22;22480;50.546;12.292;2023-04-01T13:03:05;10.10;99.90
36458;DHT22;22480;50.546;12.292;2023-04-01T13:06:11;10.60;99.90
36458;DHT22;22480;50.546;12.292;2023-04-01T13:17:22;11.80;99.90
36458;DHT22;22480;50.546;12.292;2023-04-01T13:22:47;12.70;99.90
36458;DHT22;22480;50.546;12.292;2023-04-01T13:25:43;12.70;99.90
36458;DHT22;22480;50.546;12.292;2023-04-01T13:30:42;12.20;99.90
36458;DHT22;22480;50.546;12.292;2023-04-01T13:33:23;12.00;99.90
36458;DHT22;22480;50.546;12.292;2023-04-01T13:36:07;11.90;99.90
36458;DHT22;22480;50.546;12.292;2023-04-01T13:54:58;10.20;99.90
36458;DHT22;22480;50.546;12.292;2023-04-01T14:03:32;10.10;99.90
36458;DHT22;22480;50.546;12.292;2023-04-01T14:09:29;9.90;99.90
36458;DHT22;22480;50.546;12.292;2023-04-01T14:12:26;9.90;99.90
36458;DHT22;22480;50.546;12.292;2023-04-01T14:17:54;10.40;99.90
36458;DHT22;22480;50.546;12.292;2023-04-01T14:23:35;10.50;99.90
36458;DHT22;22480;50.546;12.292;2023-04-01T14:26:35;10.40;99.90
36458;DHT22;22480;50.546;12.292;2023-04-01T14:29:21;10.30;99.90
36458;DHT22;22480;50.546;12.292;2023-04-01T14:32:13;10.20;99.90
36458;DHT22;22480;50.546;12.292;2023-04-01T14:46:06;10.20;99.90
36458;DHT22;22480;50.546;12.292;2023-04-01T14:51:15;10.30;99.90
36458;DHT22;22480;50.546;12.292;2023-04-01T14:53:51;10.20;99.90
36458;DHT22;22480;50.546;12.292;2023-04-01T14:56:36;10.20;99.90
36458;DHT22;22480;50.546;12.292;2023-04-01T14:59:07;10.40;99.90
36458;DHT22;22480;50.546;12.292;2023-04-01T15:01:47;10.50;99.90
36458;DHT22;22480;50.546;12.292;2023-04-01T15:32:19;11.20;99.90
36458;DHT22;22480;50.546;12.292;2023-04-01T15:35:27;11.20;99.90
36458;DHT22;22480;50.546;12.292;2023-04-01T15:38:02;11.20;99.90
36458;DHT22;22480;50.546;12.292;2023-04-01T15:46:21;11.00;99.90
36458;DHT22;22480;50.546;12.292;2023-04-01T15:54:27;10.80;99.90
36458;DHT22;22480;50.546;12.292;2023-04-01T16:00:06;10.60;99.90
36458;DHT22;22480;50.546;12.292;2023-04-01T16:02:49;10.50;99.90
36458;DHT22;22480;50.546;12.292;2023-04-01T16:13:30;9.90;99.90
36458;DHT22;22480;50.546;12.292;2023-04-01T16:22:02;9.50;99.90
36458;DHT22;22480;50.546;12.292;2023-04-01T16:24:42;9.30;99.90
36458;DHT22;22480;50.546;12.292;2023-04-01T16:27:29;9.20;99.90
36458;DHT22;22480;50.546;12.292;2023-04-01T16:33:00;8.90;99.90
36458;DHT22;22480;50.546;12.292;2023-04-01T16:35:29;8.90;99.90
36458;DHT22;22480;50.546;12.292;2023-04-01T16:43:45;8.60;99.90
36458;DHT22;22480;50.546;12.292;2023-04-01T16:46:32;8.50;99.90
36458;DHT22;22480;50.546;12.292;2023-04-01T16:57:18;8.40;99.90
36458;DHT22;22480;50.546;12.292;2023-04-01T16:59:58;8.30;99.90
36458;DHT22;22480;50.546;12.292;2023-04-01T17:11:08;8.30;99.90
36458;DHT22;22480;50.546;12.292;2023-04-01T17:13:46;8.30;99.90
36458;DHT22;22480;50.546;12.292;2023-04-01T17:21:45;8.20;99.90
36458;DHT22;22480;50.546;12.292;2023-04-01T17:24:31;8.20;99.90
36458;DHT22;22480;50.546;12.292;2023-04-01T17:27:31;8.20;99.90
36458;DHT22;22480;50.546;12.292;2023-04-01T17:30:22;8.20;99.90
36458;DHT22;22480;50.546;12.292;2023-04-01T17:40:55;8.00;99.90
36458;DHT22;22480;50.546;12.292;2023-04-01T17:45:56;8.00;99.90
36458;DHT22;22480;50.546;12.292;2023-04-01T17:51:16;7.90;99.90
36458;DHT22;22480;50.546;12.292;2023-04-01T17:54:08;7.90;99.90
36458;DHT22;22480;50.546;12.292;2023-04-01T18:00:29;7.90;99.90
36458;DHT22;22480;50.546;12.292;2023-04-01T18:06:03;7.80;99.90
36458;DHT22;22480;50.546;12.292;2023-04-01T18:11:33;7.70;99.90
36458;DHT22;22480;50.546;12.292;2023-04-01T18:14:09;7.70;99.90
36458;DHT22;22480;50.546;12.292;2023-04-01T18:19:50;7.60;99.90
36458;DHT22;22480;50.546;12.292;2023-04-01T18:25:37;7.60;99.90
36458;DHT22;22480;50.546;12.292;2023-04-01T18:30:41;7.60;99.90
36458;DHT22;22480;50.546;12.292;2023-04-01T18:36:15;7.60;99.90
36458;DHT22;22480;50.546;12.292;2023-04-01T18:41:50;7.60;99.90
36458;DHT22;22480;50.546;12.292;2023-04-01T18:44:30;7.60;99.90
36458;DHT22;22480;50.546;12.292;2023-04-01T18:49:52;7.60;99.90
36458;DHT22;22480;50.546;12.292;2023-04-01T18:52:39;7.60;99.90
36458;DHT22;22480;50.546;12.292;2023-04-01T19:06:58;7.60;99.90
36458;DHT22;22480;50.546;12.292;2023-04-01T19:09:27;7.60;99.90
36458;DHT22;22480;50.546;12.292;2023-04-01T19:25:43;7.60;99.90
36458;DHT22;22480;50.546;12.292;2023-04-01T19:31:52;7.50;99.90
36458;DHT22;22480;50.546;12.292;2023-04-01T19:39:51;7.40;99.90
36458;DHT22;22480;50.546;12.292;2023-04-01T19:45:38;7.40;99.90
36458;DHT22;22480;50.546;12.292;2023-04-01T19:53:52;7.50;99.90
36458;DHT22;22480;50.546;12.292;2023-04-01T19:56:23;7.50;99.90
36458;DHT22;22480;50.546;12.292;2023-04-01T19:59:23;7.50;99.90
36458;DHT22;22480;50.546;12.292;2023-04-01T20:01:59;7.50;99.90
36458;DHT22;22480;50.546;12.292;2023-04-01T20:04:35;7.50;99.90
36458;DHT22;22480;50.546;12.292;2023-04-01T20:07:11;7.50;99.90
36458;DHT22;22480;50.546;12.292;2023-04-01T20:18:02;7.40;99.90
36458;DHT22;22480;50.546;12.292;2023-04-01T20:20:30;7.40;99.90
36458;DHT22;22480;50.546;12.292;2023-04-01T20:23:06;7.40;99.90
36458;DHT22;22480;50.546;12.292;2023-04-01T20:25:38;7.40;99.90
36458;DHT22;22480;50.546;12.292;2023-04-01T20:50:04;7.40;99.90
36458;DHT22;22480;50.546;12.292;2023-04-01T20:52:41;7.30;99.90
36458;DHT22;22480;50.546;12.292;2023-04-01T20:56:06;7.30;99.90
36458;DHT22;22480;50.546;12.292;2023-04-01T21:03:34;7.30;99.90
36458;DHT22;22480;50.546;12.292;2023-04-01T21:08:53;7.30;99.90
36458;DHT22;22480;50.546;12.292;2023-04-01T21:11:51;7.20;99.90
36458;DHT22;22480;50.546;12.292;2023-04-01T21:14:46;7.20;99.90
36458;DHT22;22480;50.546;12.292;2023-04-01T21:17:29;7.20;99.90
36458;DHT22;22480;50.546;12.292;2023-04-01T21:20:29;7.20;99.90
36458;DHT22;22480;50.546;12.292;2023-04-01T21:23:08;7.20;99.90
36458;DHT22;22480;50.546;12.292;2023-04-01T21:25:39;7.20;99.90
36458;DHT22;22480;50.546;12.292;2023-04-01T21:28:16;7.30;99.90
36458;DHT22;22480;50.546;12.292;2023-04-01T21:36:20;7.30;99.90
36458;DHT22;22480;50.546;12.292;2023-04-01T21:39:19;7.30;99.90
36458;DHT22;22480;50.546;12.292;2023-04-01T21:45:11;7.20;99.90
36458;DHT22;22480;50.546;12.292;2023-04-01T22:06:31;7.20;99.90
36458;DHT22;22480;50.546;12.292;2023-04-01T22:16:41;7.10;99.90
36458;DHT22;22480;50.546;12.292;2023-04-01T22:19:22;7.10;99.90
36458;DHT22;22480;50.546;12.292;2023-04-01T22:24:46;7.00;99.90
36458;DHT22;22480;50.546;12.292;2023-04-01T22:30:24;7.00;99.90
36458;DHT22;22480;50.546;12.292;2023-04-01T22:33:06;7.00;99.90
36458;DHT22;22480;50.546;12.292;2023-04-01T22:41:38;6.90;99.90
36458;DHT22;22480;50.546;12.292;2023-04-01T22:44:22;6.90;99.90
36458;DHT22;22480;50.546;12.292;2023-04-01T22:47:04;6.90;99.90
36458;DHT22;22480;50.546;12.292;2023-04-01T22:49:37;6.90;99.90
36458;DHT22;22480;50.546;12.292;2023-04-01T22:55:03;7.00;99.90
36458;DHT22;22480;50.546;12.292;2023-04-01T23:05:54;7.10;99.90
36458;DHT22;22480;50.546;12.292;2023-04-01T23:11:22;7.10;99.90
36458;DHT22;22480;50.546;12.292;2023-04-01T23:14:00;7.10;99.90
36458;DHT22;22480;50.546;12.292;2023-04-01T23:16:36;7.20;99.90
36458;DHT22;22480;50.546;12.292;2023-04-01T23:19:18;7.20;99.90
36458;DHT22;22480;50.546;12.292;2023-04-01T23:24:53;7.20;99.90
36458;DHT22;22480;50.546;12.292;2023-04-01T23:27:26;7.20;99.90
36458;DHT22;22480;50.546;12.292;2023-04-01T23:29:53;7.20;99.90
36458;DHT22;22480;50.546;12.292;2023-04-01T23:32:22;7.20;99.90
36458;DHT22;22480;50.546;12.292;2023-04-01T23:34:53;7.20;99.90
36458;DHT22;22480;50.546;12.292;2023-04-01T23:37:20;7.20;99.90
36458;DHT22;22480;50.546;12.292;2023-04-01T23:39:52;7.20;99.90
36458;DHT22;22480;50.546;12.292;2023-04-01T23:42:27;7.20;99.90
36458;DHT22;22480;50.546;12.292;2023-04-01T23:45:00;7.20;99.90
36458;DHT22;22480;50.546;12.292;2023-04-01T23:47:32;7.20;99.90
36458;DHT22;22480;50.546;12.292;2023-04-01T23:50:04;7.20;99.90
36458;DHT22;22480;50.546;12.292;2023-04-01T23:52:38;7.20;99.90
36458;DHT22;22480;50.546;12.292;2023-04-01T23:58:01;7.20;99.90
